Ana Sayfa
METAR-TAF:

METAR-TAF

Havaalanları :

Taree, Avustralya

Enlem: 31-53-19S, Boylam: 152-30-50E, yükseklik: 12 m

Güncel hava durumu gözlemi

Rapor saat 14:00 UTC de 15 dakika önce yapıldı.
Rüzgar batıdan 5 kt
Sıcaklık 10°C
Nem 82%
Basınç 1012 hPa
Görüş mesafesi 10 km veya daha fazla

METAR: YTRE 081400Z AUTO 28005KT 9999 // NCD 10/07 Q1012

Saat: 00:15 (14:15 UTC)

Tahmin

Rapor saat 07:25 UTC de 6 saat ve 50 dakika önce yapıldı.
Ayın 08'si saat 08 UTC'den ayın 08'si saat 20 UTC'ye kadar geçerli Tahmin
Rüzgar batıdan 6 kt
Görüş mesafesi 10 km veya daha fazla
3000 ft yükseklikte parçalı bulutlu

TAF: YTRE 080725Z 0808/0820 27006KT 9999 SCT030

4.000'den fazla havaalanı için hava durumu gözlemleri ve tahminleri (METAR ve TAF raporları).

Kullanılabilir istasyonlar harita üzerinde sarı ve kırmızı noktalarla gösterilir.

İstasyonun adını görmek için fareyi noktanın üzerinde gezdirin.

Sonrasında hava gözlem ve tahminlerini görmek için tıklayın.

Haritayı değiştirmek için: yaklaştırmak için siyah artı işaretli yeşil düğmeye ve uzaklaştırmak için de eksi işaretli düğmeye hızla tıklayın; bitişik haritalar için yeşil okları kullanın.


METAR-TAF: